sensor_id;sensor_type;location;lat;lon;timestamp;pressure;altitude;pressure_sealevel;temperature;humidity
70916;BME280;58557;50.982;-3.222;2023-08-07T00:01:03;101481.40;;;18.24;54.89
70916;BME280;58557;50.982;-3.222;2023-08-07T00:03:28;101476.10;;;18.63;54.31
70916;BME280;58557;50.982;-3.222;2023-08-07T00:05:50;101472.20;;;18.18;54.80
70916;BME280;58557;50.982;-3.222;2023-08-07T00:08:14;101467.26;;;18.09;55.85
70916;BME280;58557;50.982;-3.222;2023-08-07T00:10:40;101465.81;;;18.72;54.57
70916;BME280;58557;50.982;-3.222;2023-08-07T00:13:11;101465.21;;;18.29;55.76
70916;BME280;58557;50.982;-3.222;2023-08-07T00:15:31;101463.33;;;18.46;54.44
70916;BME280;58557;50.982;-3.222;2023-08-07T00:17:57;101458.19;;;18.63;53.16
70916;BME280;58557;50.982;-3.222;2023-08-07T00:20:27;101452.59;;;17.49;56.09
70916;BME280;58557;50.982;-3.222;2023-08-07T00:22:50;101452.15;;;18.38;55.75
70916;BME280;58557;50.982;-3.222;2023-08-07T00:25:19;101449.13;;;18.57;53.96
70916;BME280;58557;50.982;-3.222;2023-08-07T00:27:40;101449.92;;;18.23;54.39
70916;BME280;58557;50.982;-3.222;2023-08-07T00:30:07;101447.34;;;18.29;56.35
70916;BME280;58557;50.982;-3.222;2023-08-07T00:32:31;101444.67;;;18.21;55.22
70916;BME280;58557;50.982;-3.222;2023-08-07T00:34:57;101451.63;;;18.71;53.60
70916;BME280;58557;50.982;-3.222;2023-08-07T00:37:23;101453.46;;;18.98;53.98
70916;BME280;58557;50.982;-3.222;2023-08-07T00:39:53;101449.95;;;18.88;54.46
70916;BME280;58557;50.982;-3.222;2023-08-07T00:42:14;101446.16;;;17.88;55.95
70916;BME280;58557;50.982;-3.222;2023-08-07T00:44:45;101447.49;;;18.21;56.14
70916;BME280;58557;50.982;-3.222;2023-08-07T00:47:11;101443.61;;;18.14;55.42
70916;BME280;58557;50.982;-3.222;2023-08-07T00:49:31;101445.27;;;18.69;54.90
70916;BME280;58557;50.982;-3.222;2023-08-07T00:52:02;101447.95;;;18.37;54.83
70916;BME280;58557;50.982;-3.222;2023-08-07T00:54:28;101448.81;;;18.22;54.46
70916;BME280;58557;50.982;-3.222;2023-08-07T00:56:48;101450.47;;;19.01;53.20
70916;BME280;58557;50.982;-3.222;2023-08-07T00:59:19;101449.99;;;18.35;53.44
70916;BME280;58557;50.982;-3.222;2023-08-07T01:01:45;101456.22;;;18.48;53.46
70916;BME280;58557;50.982;-3.222;2023-08-07T01:04:05;101460.04;;;18.71;55.04
70916;BME280;58557;50.982;-3.222;2023-08-07T01:06:31;101454.10;;;18.21;56.04
70916;BME280;58557;50.982;-3.222;2023-08-07T01:08:57;101457.84;;;17.79;55.62
70916;BME280;58557;50.982;-3.222;2023-08-07T01:11:29;101455.52;;;17.61;56.91
70916;BME280;58557;50.982;-3.222;2023-08-07T01:13:55;101453.34;;;17.49;56.12
70916;BME280;58557;50.982;-3.222;2023-08-07T01:16:16;101448.46;;;18.00;55.30
70916;BME280;58557;50.982;-3.222;2023-08-07T01:18:39;101446.55;;;17.82;54.72
70916;BME280;58557;50.982;-3.222;2023-08-07T01:21:04;101447.87;;;17.72;54.25
70916;BME280;58557;50.982;-3.222;2023-08-07T01:23:30;101445.91;;;17.74;54.09
70916;BME280;58557;50.982;-3.222;2023-08-07T01:26:00;101443.10;;;17.85;53.65
70916;BME280;58557;50.982;-3.222;2023-08-07T01:28:27;101441.66;;;17.50;54.16
70916;BME280;58557;50.982;-3.222;2023-08-07T01:30:51;101449.01;;;18.06;54.11
70916;BME280;58557;50.982;-3.222;2023-08-07T01:33:16;101443.71;;;17.50;54.60
70916;BME280;58557;50.982;-3.222;2023-08-07T01:35:41;101445.24;;;17.87;53.61
70916;BME280;58557;50.982;-3.222;2023-08-07T01:38:04;101442.63;;;17.69;53.74
70916;BME280;58557;50.982;-3.222;2023-08-07T01:40:35;101438.93;;;18.30;54.36
70916;BME280;58557;50.982;-3.222;2023-08-07T01:42:55;101442.21;;;17.96;54.19
70916;BME280;58557;50.982;-3.222;2023-08-07T01:45:24;101443.27;;;18.14;54.29
70916;BME280;58557;50.982;-3.222;2023-08-07T01:47:46;101442.49;;;18.04;53.84
70916;BME280;58557;50.982;-3.222;2023-08-07T01:50:11;101441.57;;;18.19;53.42
70916;BME280;58557;50.982;-3.222;2023-08-07T01:52:37;101440.19;;;17.91;54.35
70916;BME280;58557;50.982;-3.222;2023-08-07T01:55:03;101438.63;;;17.77;54.16
70916;BME280;58557;50.982;-3.222;2023-08-07T01:57:28;101440.17;;;17.76;55.13
70916;BME280;58557;50.982;-3.222;2023-08-07T01:59:53;101444.03;;;17.66;55.44
70916;BME280;58557;50.982;-3.222;2023-08-07T02:02:23;101444.35;;;17.40;57.42
70916;BME280;58557;50.982;-3.222;2023-08-07T02:04:44;101442.35;;;17.73;56.89
70916;BME280;58557;50.982;-3.222;2023-08-07T02:07:14;101441.29;;;17.01;59.77
70916;BME280;58557;50.982;-3.222;2023-08-07T02:09:35;101436.13;;;17.46;57.80
70916;BME280;58557;50.982;-3.222;2023-08-07T02:12:00;101437.23;;;17.09;58.77
70916;BME280;58557;50.982;-3.222;2023-08-07T02:14:31;101443.03;;;17.75;57.99
70916;BME280;58557;50.982;-3.222;2023-08-07T02:16:51;101440.40;;;17.53;57.88
70916;BME280;58557;50.982;-3.222;2023-08-07T02:19:16;101441.24;;;17.62;57.83
70916;BME280;58557;50.982;-3.222;2023-08-07T02:21:47;101446.44;;;17.70;57.95
70916;BME280;58557;50.982;-3.222;2023-08-07T02:24:08;101449.99;;;16.66;58.52
70916;BME280;58557;50.982;-3.222;2023-08-07T02:26:33;101450.40;;;17.45;58.15
70916;BME280;58557;50.982;-3.222;2023-08-07T02:28:59;101446.83;;;17.41;57.64
70916;BME280;58557;50.982;-3.222;2023-08-07T02:31:29;101449.04;;;17.77;57.61
70916;BME280;58557;50.982;-3.222;2023-08-07T02:33:54;101445.86;;;17.67;56.50
70916;BME280;58557;50.982;-3.222;2023-08-07T02:36:15;101439.73;;;17.35;56.01
70916;BME280;58557;50.982;-3.222;2023-08-07T02:38:45;101444.32;;;17.47;57.27
70916;BME280;58557;50.982;-3.222;2023-08-07T02:41:11;101442.74;;;17.60;56.78
70916;BME280;58557;50.982;-3.222;2023-08-07T02:43:32;101436.44;;;18.39;54.37
70916;BME280;58557;50.982;-3.222;2023-08-07T02:45:57;101435.23;;;17.91;55.00
70916;BME280;58557;50.982;-3.222;2023-08-07T02:48:27;101430.60;;;17.72;56.49
70916;BME280;58557;50.982;-3.222;2023-08-07T02:50:49;101433.61;;;17.30;56.38
70916;BME280;58557;50.982;-3.222;2023-08-07T02:53:14;101424.61;;;17.47;56.34
70916;BME280;58557;50.982;-3.222;2023-08-07T02:55:39;101428.41;;;17.33;55.99
70916;BME280;58557;50.982;-3.222;2023-08-07T02:58:09;101428.77;;;17.39;55.61
70916;BME280;58557;50.982;-3.222;2023-08-07T03:00:30;101434.66;;;16.96;56.23
70916;BME280;58557;50.982;-3.222;2023-08-07T03:03:00;101437.47;;;17.14;55.90
70916;BME280;58557;50.982;-3.222;2023-08-07T03:05:26;101440.23;;;16.51;56.75
70916;BME280;58557;50.982;-3.222;2023-08-07T03:07:47;101436.20;;;17.00;56.64
70916;BME280;58557;50.982;-3.222;2023-08-07T03:10:12;101436.30;;;17.51;55.10
70916;BME280;58557;50.982;-3.222;2023-08-07T03:12:38;101439.33;;;17.32;54.78
70916;BME280;58557;50.982;-3.222;2023-08-07T03:15:05;101437.19;;;17.74;53.68
70916;BME280;58557;50.982;-3.222;2023-08-07T03:17:29;101435.56;;;18.07;54.43
70916;BME280;58557;50.982;-3.222;2023-08-07T03:19:55;101438.92;;;17.62;55.99
70916;BME280;58557;50.982;-3.222;2023-08-07T03:22:25;101430.39;;;17.28;55.95
70916;BME280;58557;50.982;-3.222;2023-08-07T03:24:47;101419.26;;;17.62;54.82
70916;BME280;58557;50.982;-3.222;2023-08-07T03:27:17;101419.98;;;17.60;55.00
70916;BME280;58557;50.982;-3.222;2023-08-07T03:29:43;101415.68;;;17.66;55.21
70916;BME280;58557;50.982;-3.222;2023-08-07T03:32:09;101416.91;;;18.35;54.64
70916;BME280;58557;50.982;-3.222;2023-08-07T03:34:34;101420.66;;;17.44;56.72
70916;BME280;58557;50.982;-3.222;2023-08-07T03:36:55;101417.52;;;16.89;57.26
70916;BME280;58557;50.982;-3.222;2023-08-07T03:39:21;101415.36;;;17.27;56.26
70916;BME280;58557;50.982;-3.222;2023-08-07T03:41:46;101416.37;;;16.84;56.73
70916;BME280;58557;50.982;-3.222;2023-08-07T03:44:17;101419.79;;;17.31;56.22
70916;BME280;58557;50.982;-3.222;2023-08-07T03:46:42;101423.87;;;16.85;57.63
70916;BME280;58557;50.982;-3.222;2023-08-07T03:49:30;101422.22;;;15.74;62.48
70916;BME280;58557;50.982;-3.222;2023-08-07T03:51:33;101429.74;;;16.75;59.64
70916;BME280;58557;50.982;-3.222;2023-08-07T03:53:53;101427.77;;;15.45;64.35
70916;BME280;58557;50.982;-3.222;2023-08-07T03:56:19;101429.87;;;14.40;68.01
70916;BME280;58557;50.982;-3.222;2023-08-07T03:58:44;101435.02;;;13.97;69.85
70916;BME280;58557;50.982;-3.222;2023-08-07T04:01:15;101424.18;;;15.08;65.95
70916;BME280;58557;50.982;-3.222;2023-08-07T04:03:36;101419.62;;;15.59;65.96
70916;BME280;58557;50.982;-3.222;2023-08-07T04:06:02;101420.83;;;14.90;68.90
70916;BME280;58557;50.982;-3.222;2023-08-07T04:08:27;101423.73;;;15.85;65.16
70916;BME280;58557;50.982;-3.222;2023-08-07T04:10:59;101426.83;;;16.28;61.66
70916;BME280;58557;50.982;-3.222;2023-08-07T04:13:23;101426.98;;;16.48;61.48
70916;BME280;58557;50.982;-3.222;2023-08-07T04:15:44;101425.53;;;16.33;61.21
70916;BME280;58557;50.982;-3.222;2023-08-07T04:18:10;101421.52;;;15.70;62.77
70916;BME280;58557;50.982;-3.222;2023-08-07T04:20:35;101422.45;;;16.13;62.45
70916;BME280;58557;50.982;-3.222;2023-08-07T04:23:01;101418.74;;;15.71;63.64
70916;BME280;58557;50.982;-3.222;2023-08-07T04:25:32;101418.49;;;14.61;67.59
70916;BME280;58557;50.982;-3.222;2023-08-07T04:27:57;101414.54;;;15.08;64.77
70916;BME280;58557;50.982;-3.222;2023-08-07T04:30:18;101419.94;;;15.70;63.21
70916;BME280;58557;50.982;-3.222;2023-08-07T04:32:44;101417.46;;;16.05;60.83
70916;BME280;58557;50.982;-3.222;2023-08-07T04:35:15;101415.03;;;17.12;59.21
70916;BME280;58557;50.982;-3.222;2023-08-07T04:37:40;101416.46;;;16.76;59.39
70916;BME280;58557;50.982;-3.222;2023-08-07T04:40:01;101414.93;;;16.78;58.88
70916;BME280;58557;50.982;-3.222;2023-08-07T04:42:26;101417.72;;;17.41;57.14
70916;BME280;58557;50.982;-3.222;2023-08-07T04:44:52;101420.94;;;16.76;58.88
70916;BME280;58557;50.982;-3.222;2023-08-07T04:47:18;101421.63;;;17.13;58.11
70916;BME280;58557;50.982;-3.222;2023-08-07T04:49:49;101423.92;;;16.55;58.20
70916;BME280;58557;50.982;-3.222;2023-08-07T04:52:14;101424.89;;;16.66;57.65
70916;BME280;58557;50.982;-3.222;2023-08-07T04:54:40;101432.47;;;17.05;56.91
70916;BME280;58557;50.982;-3.222;2023-08-07T04:57:00;101427.93;;;16.07;59.73
70916;BME280;58557;50.982;-3.222;2023-08-07T04:59:31;101420.90;;;15.96;60.94
70916;BME280;58557;50.982;-3.222;2023-08-07T05:01:52;101425.65;;;15.85;60.73
70916;BME280;58557;50.982;-3.222;2023-08-07T05:04:22;101429.14;;;15.73;61.47
70916;BME280;58557;50.982;-3.222;2023-08-07T05:06:43;101430.73;;;15.71;62.91
70916;BME280;58557;50.982;-3.222;2023-08-07T05:09:09;101431.75;;;15.53;63.50
70916;BME280;58557;50.982;-3.222;2023-08-07T05:11:34;101428.01;;;15.46;63.88
70916;BME280;58557;50.982;-3.222;2023-08-07T05:14:05;101429.23;;;14.18;66.29
70916;BME280;58557;50.982;-3.222;2023-08-07T05:16:26;101429.48;;;13.84;70.04
70916;BME280;58557;50.982;-3.222;2023-08-07T05:18:52;101427.91;;;13.83;71.86
70916;BME280;58557;50.982;-3.222;2023-08-07T05:21:17;101439.15;;;13.17;73.01
70916;BME280;58557;50.982;-3.222;2023-08-07T05:23:43;101450.45;;;12.89;75.32
70916;BME280;58557;50.982;-3.222;2023-08-07T05:26:08;101449.81;;;12.16;76.79
70916;BME280;58557;50.982;-3.222;2023-08-07T05:28:33;101448.02;;;11.51;82.99
70916;BME280;58557;50.982;-3.222;2023-08-07T05:31:03;101441.41;;;12.44;78.23
70916;BME280;58557;50.982;-3.222;2023-08-07T05:33:24;101443.94;;;12.22;77.42
70916;BME280;58557;50.982;-3.222;2023-08-07T05:35:55;101438.62;;;13.79;74.59
70916;BME280;58557;50.982;-3.222;2023-08-07T05:38:16;101439.77;;;12.62;76.66
70916;BME280;58557;50.982;-3.222;2023-08-07T05:40:46;101444.76;;;12.29;78.55
70916;BME280;58557;50.982;-3.222;2023-08-07T05:43:07;101447.26;;;11.63;80.12
70916;BME280;58557;50.982;-3.222;2023-08-07T05:45:38;101447.24;;;12.80;77.47
70916;BME280;58557;50.982;-3.222;2023-08-07T05:47:58;101447.07;;;12.21;82.37
70916;BME280;58557;50.982;-3.222;2023-08-07T05:50:23;101450.82;;;12.73;81.03
70916;BME280;58557;50.982;-3.222;2023-08-07T05:52:49;101453.68;;;12.87;76.67
70916;BME280;58557;50.982;-3.222;2023-08-07T05:55:15;101462.01;;;12.75;79.29
70916;BME280;58557;50.982;-3.222;2023-08-07T05:57:40;101459.02;;;13.30;77.35
70916;BME280;58557;50.982;-3.222;2023-08-07T06:00:06;101461.66;;;13.24;78.86
70916;BME280;58557;50.982;-3.222;2023-08-07T06:02:30;101458.98;;;13.57;78.92
70916;BME280;58557;50.982;-3.222;2023-08-07T06:05:01;101463.76;;;13.57;76.73
70916;BME280;58557;50.982;-3.222;2023-08-07T06:07:22;101464.81;;;13.02;78.48
70916;BME280;58557;50.982;-3.222;2023-08-07T06:09:48;101457.48;;;13.94;76.66
70916;BME280;58557;50.982;-3.222;2023-08-07T06:12:14;101461.65;;;12.06;82.91
70916;BME280;58557;50.982;-3.222;2023-08-07T06:14:44;101459.73;;;14.14;76.02
70916;BME280;58557;50.982;-3.222;2023-08-07T06:17:10;101459.58;;;15.16;72.66
70916;BME280;58557;50.982;-3.222;2023-08-07T06:19:37;101460.92;;;15.11;72.12
70916;BME280;58557;50.982;-3.222;2023-08-07T06:22:01;101462.73;;;15.02;73.96
70916;BME280;58557;50.982;-3.222;2023-08-07T06:24:22;101464.79;;;15.35;71.11
70916;BME280;58557;50.982;-3.222;2023-08-07T06:26:49;101463.60;;;16.13;68.58
70916;BME280;58557;50.982;-3.222;2023-08-07T06:29:13;101459.76;;;15.98;66.86
70916;BME280;58557;50.982;-3.222;2023-08-07T06:31:44;101457.91;;;15.78;68.33
70916;BME280;58557;50.982;-3.222;2023-08-07T06:34:04;101461.24;;;14.83;71.60
70916;BME280;58557;50.982;-3.222;2023-08-07T06:36:35;101459.19;;;14.84;70.84
70916;BME280;58557;50.982;-3.222;2023-08-07T06:39:01;101461.40;;;16.16;67.06
70916;BME280;58557;50.982;-3.222;2023-08-07T06:41:21;101463.72;;;15.66;67.62
70916;BME280;58557;50.982;-3.222;2023-08-07T06:43:52;101463.06;;;16.73;66.02
70916;BME280;58557;50.982;-3.222;2023-08-07T06:46:13;101464.40;;;17.49;62.11
70916;BME280;58557;50.982;-3.222;2023-08-07T06:48:43;101461.65;;;14.38;70.44
70916;BME280;58557;50.982;-3.222;2023-08-07T06:51:04;101462.19;;;14.34;72.84
70916;BME280;58557;50.982;-3.222;2023-08-07T06:53:29;101462.59;;;16.10;68.26
70916;BME280;58557;50.982;-3.222;2023-08-07T06:56:00;101468.90;;;16.36;68.86
70916;BME280;58557;50.982;-3.222;2023-08-07T06:58:21;101471.49;;;16.44;67.12
70916;BME280;58557;50.982;-3.222;2023-08-07T07:00:47;101468.95;;;17.02;66.75
70916;BME280;58557;50.982;-3.222;2023-08-07T07:03:17;101462.50;;;16.01;69.53
70916;BME280;58557;50.982;-3.222;2023-08-07T07:05:38;101458.41;;;15.98;68.68
70916;BME280;58557;50.982;-3.222;2023-08-07T07:08:04;101460.75;;;16.27;70.53
70916;BME280;58557;50.982;-3.222;2023-08-07T07:10:34;101463.71;;;16.24;69.44
70916;BME280;58557;50.982;-3.222;2023-08-07T07:13:00;101464.41;;;16.74;67.51
70916;BME280;58557;50.982;-3.222;2023-08-07T07:15:21;101470.32;;;16.72;69.57
70916;BME280;58557;50.982;-3.222;2023-08-07T07:17:46;101459.54;;;17.98;62.36
70916;BME280;58557;50.982;-3.222;2023-08-07T07:20:12;101470.08;;;16.92;67.90
70916;BME280;58557;50.982;-3.222;2023-08-07T07:22:38;101470.95;;;18.71;62.09
70916;BME280;58557;50.982;-3.222;2023-08-07T07:25:09;101471.25;;;17.82;66.22
70916;BME280;58557;50.982;-3.222;2023-08-07T07:27:34;101466.23;;;18.69;61.65
70916;BME280;58557;50.982;-3.222;2023-08-07T07:29:55;101471.12;;;17.39;65.26
70916;BME280;58557;50.982;-3.222;2023-08-07T07:32:25;101459.92;;;18.09;63.56
70916;BME280;58557;50.982;-3.222;2023-08-07T07:34:51;101459.36;;;17.95;63.20
70916;BME280;58557;50.982;-3.222;2023-08-07T07:37:12;101467.61;;;18.12;62.43
70916;BME280;58557;50.982;-3.222;2023-08-07T07:39:42;101477.61;;;18.73;61.45
70916;BME280;58557;50.982;-3.222;2023-08-07T07:42:08;101479.69;;;17.24;64.97
70916;BME280;58557;50.982;-3.222;2023-08-07T07:44:29;101469.71;;;19.00;61.85
70916;BME280;58557;50.982;-3.222;2023-08-07T07:46:59;101467.63;;;18.19;64.61
70916;BME280;58557;50.982;-3.222;2023-08-07T07:49:25;101474.30;;;17.92;63.82
70916;BME280;58557;50.982;-3.222;2023-08-07T07:51:50;101471.46;;;18.62;63.82
70916;BME280;58557;50.982;-3.222;2023-08-07T07:54:16;101469.66;;;20.79;54.54
70916;BME280;58557;50.982;-3.222;2023-08-07T07:56:36;101470.08;;;20.85;56.97
70916;BME280;58557;50.982;-3.222;2023-08-07T07:59:02;101464.84;;;21.71;51.65
70916;BME280;58557;50.982;-3.222;2023-08-07T08:01:33;101455.32;;;20.56;54.06
70916;BME280;58557;50.982;-3.222;2023-08-07T08:03:58;101460.31;;;21.69;50.94
70916;BME280;58557;50.982;-3.222;2023-08-07T08:06:19;101466.81;;;20.12;54.75
70916;BME280;58557;50.982;-3.222;2023-08-07T08:08:44;101466.37;;;19.47;58.05
70916;BME280;58557;50.982;-3.222;2023-08-07T08:11:10;101467.80;;;21.48;52.89
70916;BME280;58557;50.982;-3.222;2023-08-07T08:13:36;101459.05;;;23.59;49.51
70916;BME280;58557;50.982;-3.222;2023-08-07T08:16:01;101459.02;;;23.15;47.58
70916;BME280;58557;50.982;-3.222;2023-08-07T08:18:26;101464.04;;;21.28;51.68
70916;BME280;58557;50.982;-3.222;2023-08-07T08:20:57;101467.43;;;21.35;51.78
70916;BME280;58557;50.982;-3.222;2023-08-07T08:23:17;101464.74;;;20.43;54.39
70916;BME280;58557;50.982;-3.222;2023-08-07T08:25:48;101465.36;;;22.53;51.05
70916;BME280;58557;50.982;-3.222;2023-08-07T08:28:13;101470.60;;;21.55;51.85
70916;BME280;58557;50.982;-3.222;2023-08-07T08:30:39;101470.76;;;21.83;52.63
70916;BME280;58557;50.982;-3.222;2023-08-07T08:33:04;101471.76;;;22.48;52.01
70916;BME280;58557;50.982;-3.222;2023-08-07T08:35:25;101474.63;;;21.60;54.33
70916;BME280;58557;50.982;-3.222;2023-08-07T08:37:50;101472.84;;;22.27;53.00
70916;BME280;58557;50.982;-3.222;2023-08-07T08:40:21;101467.91;;;22.78;48.91
70916;BME280;58557;50.982;-3.222;2023-08-07T08:42:44;101462.18;;;22.73;47.52
70916;BME280;58557;50.982;-3.222;2023-08-07T08:45:09;101460.83;;;22.54;46.77
70916;BME280;58557;50.982;-3.222;2023-08-07T08:47:33;101475.10;;;24.13;43.81
70916;BME280;58557;50.982;-3.222;2023-08-07T08:50:04;101480.64;;;22.00;46.52
70916;BME280;58557;50.982;-3.222;2023-08-07T08:52:24;101473.94;;;20.56;45.79
70916;BME280;58557;50.982;-3.222;2023-08-07T08:54:49;101472.88;;;21.61;44.90
70916;BME280;58557;50.982;-3.222;2023-08-07T08:57:15;101479.67;;;21.44;44.87
70916;BME280;58557;50.982;-3.222;2023-08-07T08:59:41;101484.86;;;21.96;44.22
70916;BME280;58557;50.982;-3.222;2023-08-07T09:02:06;101480.45;;;21.90;44.03
70916;BME280;58557;50.982;-3.222;2023-08-07T09:04:31;101480.77;;;22.90;42.02
70916;BME280;58557;50.982;-3.222;2023-08-07T09:06:56;101481.31;;;23.15;40.42
70916;BME280;58557;50.982;-3.222;2023-08-07T09:09:22;101482.58;;;24.38;36.71
70916;BME280;58557;50.982;-3.222;2023-08-07T09:11:48;101476.06;;;22.54;40.92
70916;BME280;58557;50.982;-3.222;2023-08-07T09:14:16;101478.44;;;22.20;39.64
70916;BME280;58557;50.982;-3.222;2023-08-07T09:16:39;101468.88;;;22.99;38.07
70916;BME280;58557;50.982;-3.222;2023-08-07T09:19:04;101473.57;;;21.86;38.42
70916;BME280;58557;50.982;-3.222;2023-08-07T09:21:30;101472.06;;;22.98;37.49
70916;BME280;58557;50.982;-3.222;2023-08-07T09:23:55;101471.02;;;22.00;38.02
70916;BME280;58557;50.982;-3.222;2023-08-07T09:26:22;101462.59;;;22.55;38.69
70916;BME280;58557;50.982;-3.222;2023-08-07T09:28:46;101456.69;;;21.52;38.77
70916;BME280;58557;50.982;-3.222;2023-08-07T09:31:14;101460.08;;;23.16;34.48
70916;BME280;58557;50.982;-3.222;2023-08-07T09:33:39;101460.20;;;22.75;36.95
70916;BME280;58557;50.982;-3.222;2023-08-07T09:36:03;101455.82;;;23.27;35.42
70916;BME280;58557;50.982;-3.222;2023-08-07T09:38:28;101453.88;;;21.54;37.47
70916;BME280;58557;50.982;-3.222;2023-08-07T09:40:53;101450.94;;;22.68;35.60
70916;BME280;58557;50.982;-3.222;2023-08-07T09:43:22;101451.00;;;23.31;35.70
70916;BME280;58557;50.982;-3.222;2023-08-07T09:45:44;101448.49;;;22.86;34.91
70916;BME280;58557;50.982;-3.222;2023-08-07T09:48:10;101455.44;;;23.57;34.86
70916;BME280;58557;50.982;-3.222;2023-08-07T09:50:35;101453.57;;;23.49;33.85
70916;BME280;58557;50.982;-3.222;2023-08-07T09:53:01;101454.45;;;21.62;36.46
70916;BME280;58557;50.982;-3.222;2023-08-07T09:55:27;101459.40;;;21.86;37.74
70916;BME280;58557;50.982;-3.222;2023-08-07T09:57:53;101452.40;;;21.60;36.47
70916;BME280;58557;50.982;-3.222;2023-08-07T10:00:18;101454.77;;;21.83;37.45
70916;BME280;58557;50.982;-3.222;2023-08-07T10:02:43;101443.92;;;23.14;36.21
70916;BME280;58557;50.982;-3.222;2023-08-07T10:05:10;101442.72;;;23.52;34.97
70916;BME280;58557;50.982;-3.222;2023-08-07T10:07:34;101441.71;;;23.93;35.04
70916;BME280;58557;50.982;-3.222;2023-08-07T10:10:00;101446.04;;;25.40;33.13
70916;BME280;58557;50.982;-3.222;2023-08-07T10:12:26;101442.97;;;24.52;33.88
70916;BME280;58557;50.982;-3.222;2023-08-07T10:14:51;101438.20;;;24.66;32.76
70916;BME280;58557;50.982;-3.222;2023-08-07T10:17:17;101439.34;;;23.66;34.53
70916;BME280;58557;50.982;-3.222;2023-08-07T10:19:43;101437.88;;;22.95;34.45
70916;BME280;58557;50.982;-3.222;2023-08-07T10:22:07;101435.89;;;23.29;35.73
70916;BME280;58557;50.982;-3.222;2023-08-07T10:24:35;101437.34;;;22.10;37.38
70916;BME280;58557;50.982;-3.222;2023-08-07T10:26:59;101435.50;;;22.13;36.38
70916;BME280;58557;50.982;-3.222;2023-08-07T10:29:25;101436.26;;;22.89;36.41
70916;BME280;58557;50.982;-3.222;2023-08-07T10:31:50;101438.19;;;22.22;38.17
70916;BME280;58557;50.982;-3.222;2023-08-07T10:34:16;101428.84;;;23.72;36.31
70916;BME280;58557;50.982;-3.222;2023-08-07T10:36:41;101423.59;;;23.63;36.85
70916;BME280;58557;50.982;-3.222;2023-08-07T10:39:07;101425.29;;;22.20;36.19
70916;BME280;58557;50.982;-3.222;2023-08-07T10:41:38;101421.17;;;23.27;34.93
70916;BME280;58557;50.982;-3.222;2023-08-07T10:43:57;101418.06;;;23.04;36.56
70916;BME280;58557;50.982;-3.222;2023-08-07T10:46:24;101428.60;;;22.58;35.09
70916;BME280;58557;50.982;-3.222;2023-08-07T10:48:54;101429.77;;;23.77;34.29
70916;BME280;58557;50.982;-3.222;2023-08-07T10:51:15;101423.10;;;23.21;33.38
70916;BME280;58557;50.982;-3.222;2023-08-07T10:53:41;101421.60;;;22.12;34.78
70916;BME280;58557;50.982;-3.222;2023-08-07T10:56:08;101415.95;;;23.04;33.93
70916;BME280;58557;50.982;-3.222;2023-08-07T10:58:32;101420.43;;;24.29;33.96
70916;BME280;58557;50.982;-3.222;2023-08-07T11:03:26;101413.83;;;25.01;32.29
70916;BME280;58557;50.982;-3.222;2023-08-07T11:05:47;101410.71;;;25.45;33.03
70916;BME280;58557;50.982;-3.222;2023-08-07T11:08:12;101411.71;;;26.67;30.35
70916;BME280;58557;50.982;-3.222;2023-08-07T11:10:38;101410.48;;;26.40;31.12
70916;BME280;58557;50.982;-3.222;2023-08-07T11:13:03;101419.06;;;25.31;31.65
70916;BME280;58557;50.982;-3.222;2023-08-07T11:15:30;101417.21;;;24.33;32.10
70916;BME280;58557;50.982;-3.222;2023-08-07T11:17:55;101428.59;;;23.74;32.43
70916;BME280;58557;50.982;-3.222;2023-08-07T11:20:20;101424.01;;;22.91;34.54
70916;BME280;58557;50.982;-3.222;2023-08-07T11:22:45;101418.06;;;20.38;39.15
70916;BME280;58557;50.982;-3.222;2023-08-07T11:25:11;101415.72;;;21.56;37.46
70916;BME280;58557;50.982;-3.222;2023-08-07T11:27:36;101413.21;;;22.27;36.22
70916;BME280;58557;50.982;-3.222;2023-08-07T11:30:02;101412.21;;;20.03;39.00
70916;BME280;58557;50.982;-3.222;2023-08-07T11:32:27;101411.72;;;20.42;39.17
70916;BME280;58557;50.982;-3.222;2023-08-07T11:34:53;101415.55;;;20.30;40.55
70916;BME280;58557;50.982;-3.222;2023-08-07T11:37:19;101412.35;;;20.94;40.42
70916;BME280;58557;50.982;-3.222;2023-08-07T11:39:44;101410.31;;;21.46;38.02
70916;BME280;58557;50.982;-3.222;2023-08-07T11:42:09;101410.45;;;22.38;35.80
70916;BME280;58557;50.982;-3.222;2023-08-07T11:44:35;101407.01;;;22.68;34.74
70916;BME280;58557;50.982;-3.222;2023-08-07T11:47:00;101407.41;;;22.25;35.72
70916;BME280;58557;50.982;-3.222;2023-08-07T11:49:26;101404.81;;;23.70;32.95
70916;BME280;58557;50.982;-3.222;2023-08-07T11:51:51;101407.30;;;22.66;34.23
70916;BME280;58557;50.982;-3.222;2023-08-07T11:54:17;101413.43;;;21.69;34.64
70916;BME280;58557;50.982;-3.222;2023-08-07T11:56:42;101417.27;;;21.63;36.01
70916;BME280;58557;50.982;-3.222;2023-08-07T11:59:08;101406.28;;;21.39;36.03
70916;BME280;58557;50.982;-3.222;2023-08-07T12:01:38;101401.60;;;22.08;35.33
70916;BME280;58557;50.982;-3.222;2023-08-07T12:04:08;101399.60;;;22.26;35.92
70916;BME280;58557;50.982;-3.222;2023-08-07T12:06:25;101405.38;;;21.32;36.90
70916;BME280;58557;50.982;-3.222;2023-08-07T12:08:54;101404.56;;;20.53;38.23
70916;BME280;58557;50.982;-3.222;2023-08-07T12:11:16;101395.40;;;22.16;36.99
70916;BME280;58557;50.982;-3.222;2023-08-07T12:13:43;101398.90;;;19.85;39.76
70916;BME280;58557;50.982;-3.222;2023-08-07T12:16:08;101402.46;;;20.73;38.16
70916;BME280;58557;50.982;-3.222;2023-08-07T12:18:33;101407.61;;;20.61;40.25
70916;BME280;58557;50.982;-3.222;2023-08-07T12:20:59;101400.06;;;20.20;39.46
70916;BME280;58557;50.982;-3.222;2023-08-07T12:23:24;101391.03;;;20.30;39.43
70916;BME280;58557;50.982;-3.222;2023-08-07T12:25:49;101391.94;;;20.59;39.56
70916;BME280;58557;50.982;-3.222;2023-08-07T12:28:15;101386.55;;;20.68;39.52
70916;BME280;58557;50.982;-3.222;2023-08-07T12:30:45;101382.07;;;20.28;39.58
70916;BME280;58557;50.982;-3.222;2023-08-07T12:33:06;101380.65;;;20.08;39.76